sensor_id;sensor_type;location;lat;lon;timestamp;P1;durP1;ratioP1;P2;durP2;ratioP2
54919;SDS011;63804;53.120;8.764;2023-11-19T00:00:19;3.10;;;2.00;;
54919;SDS011;63804;53.120;8.764;2023-11-19T00:02:47;2.45;;;1.95;;
54919;SDS011;63804;53.120;8.764;2023-11-19T00:05:15;3.13;;;2.00;;
54919;SDS011;63804;53.120;8.764;2023-11-19T00:07:43;4.78;;;2.28;;
54919;SDS011;63804;53.120;8.764;2023-11-19T00:10:12;2.78;;;1.70;;
54919;SDS011;63804;53.120;8.764;2023-11-19T00:12:42;3.03;;;2.25;;
54919;SDS011;63804;53.120;8.764;2023-11-19T00:15:15;2.85;;;2.25;;
54919;SDS011;63804;53.120;8.764;2023-11-19T00:17:46;4.07;;;2.53;;
54919;SDS011;63804;53.120;8.764;2023-11-19T00:20:17;3.60;;;2.38;;
54919;SDS011;63804;53.120;8.764;2023-11-19T00:22:46;3.47;;;2.38;;
54919;SDS011;63804;53.120;8.764;2023-11-19T00:25:17;4.25;;;2.78;;
54919;SDS011;63804;53.120;8.764;2023-11-19T00:27:45;5.38;;;2.80;;
54919;SDS011;63804;53.120;8.764;2023-11-19T00:30:13;5.72;;;2.97;;
54919;SDS011;63804;53.120;8.764;2023-11-19T00:32:42;5.35;;;3.10;;
54919;SDS011;63804;53.120;8.764;2023-11-19T00:35:10;3.97;;;2.90;;
54919;SDS011;63804;53.120;8.764;2023-11-19T00:37:38;4.10;;;3.10;;
54919;SDS011;63804;53.120;8.764;2023-11-19T00:40:07;4.22;;;3.10;;
54919;SDS011;63804;53.120;8.764;2023-11-19T00:42:38;5.15;;;3.58;;
54919;SDS011;63804;53.120;8.764;2023-11-19T00:45:06;6.57;;;3.70;;
54919;SDS011;63804;53.120;8.764;2023-11-19T00:47:37;5.55;;;3.63;;
54919;SDS011;63804;53.120;8.764;2023-11-19T00:50:06;6.10;;;3.60;;
54919;SDS011;63804;53.120;8.764;2023-11-19T00:52:37;4.95;;;3.50;;
54919;SDS011;63804;53.120;8.764;2023-11-19T00:55:06;6.72;;;3.63;;
54919;SDS011;63804;53.120;8.764;2023-11-19T00:57:35;5.20;;;3.38;;
54919;SDS011;63804;53.120;8.764;2023-11-19T01:00:04;6.22;;;3.83;;
54919;SDS011;63804;53.120;8.764;2023-11-19T01:02:54;6.07;;;3.97;;
54919;SDS011;63804;53.120;8.764;2023-11-19T01:05:22;5.72;;;4.00;;
54919;SDS011;63804;53.120;8.764;2023-11-19T01:07:50;7.93;;;4.57;;
54919;SDS011;63804;53.120;8.764;2023-11-19T01:10:19;9.85;;;5.32;;
54919;SDS011;63804;53.120;8.764;2023-11-19T01:12:48;6.40;;;3.97;;
54919;SDS011;63804;53.120;8.764;2023-11-19T01:15:15;6.07;;;4.18;;
54919;SDS011;63804;53.120;8.764;2023-11-19T01:17:46;7.38;;;4.38;;
54919;SDS011;63804;53.120;8.764;2023-11-19T01:20:16;5.53;;;4.05;;
54919;SDS011;63804;53.120;8.764;2023-11-19T01:22:44;5.97;;;4.38;;
54919;SDS011;63804;53.120;8.764;2023-11-19T01:25:12;7.00;;;4.60;;
54919;SDS011;63804;53.120;8.764;2023-11-19T01:27:40;7.43;;;5.00;;
54919;SDS011;63804;53.120;8.764;2023-11-19T01:30:08;5.72;;;4.18;;
54919;SDS011;63804;53.120;8.764;2023-11-19T01:32:42;7.63;;;5.05;;
54919;SDS011;63804;53.120;8.764;2023-11-19T01:35:10;7.00;;;5.25;;
54919;SDS011;63804;53.120;8.764;2023-11-19T01:37:38;6.45;;;4.80;;
54919;SDS011;63804;53.120;8.764;2023-11-19T01:40:06;7.53;;;5.05;;
54919;SDS011;63804;53.120;8.764;2023-11-19T01:42:39;7.35;;;5.10;;
54919;SDS011;63804;53.120;8.764;2023-11-19T01:45:07;7.07;;;5.10;;
54919;SDS011;63804;53.120;8.764;2023-11-19T01:47:37;6.80;;;4.93;;
54919;SDS011;63804;53.120;8.764;2023-11-19T01:50:06;9.02;;;6.25;;
54919;SDS011;63804;53.120;8.764;2023-11-19T01:52:37;7.28;;;5.43;;
54919;SDS011;63804;53.120;8.764;2023-11-19T01:55:06;9.48;;;6.07;;
54919;SDS011;63804;53.120;8.764;2023-11-19T01:57:36;7.90;;;6.22;;
54919;SDS011;63804;53.120;8.764;2023-11-19T02:00:06;8.85;;;6.25;;
54919;SDS011;63804;53.120;8.764;2023-11-19T02:02:42;8.50;;;6.00;;
54919;SDS011;63804;53.120;8.764;2023-11-19T02:05:12;8.45;;;6.70;;
54919;SDS011;63804;53.120;8.764;2023-11-19T02:07:40;8.88;;;6.75;;
54919;SDS011;63804;53.120;8.764;2023-11-19T02:10:08;9.60;;;7.10;;
54919;SDS011;63804;53.120;8.764;2023-11-19T02:12:40;10.50;;;7.78;;
54919;SDS011;63804;53.120;8.764;2023-11-19T02:15:12;9.77;;;7.20;;
54919;SDS011;63804;53.120;8.764;2023-11-19T02:17:40;10.35;;;7.80;;
54919;SDS011;63804;53.120;8.764;2023-11-19T02:20:08;9.77;;;7.95;;
54919;SDS011;63804;53.120;8.764;2023-11-19T02:22:39;9.93;;;7.95;;
54919;SDS011;63804;53.120;8.764;2023-11-19T02:25:07;11.38;;;8.38;;
54919;SDS011;63804;53.120;8.764;2023-11-19T02:28:00;10.80;;;8.82;;
54919;SDS011;63804;53.120;8.764;2023-11-19T02:30:29;10.85;;;8.80;;
54919;SDS011;63804;53.120;8.764;2023-11-19T02:32:57;10.52;;;9.02;;
54919;SDS011;63804;53.120;8.764;2023-11-19T02:35:32;12.38;;;9.38;;
54919;SDS011;63804;53.120;8.764;2023-11-19T02:38:01;11.77;;;10.02;;
54919;SDS011;63804;53.120;8.764;2023-11-19T02:40:30;15.23;;;10.05;;
54919;SDS011;63804;53.120;8.764;2023-11-19T02:42:57;12.50;;;10.88;;
54919;SDS011;63804;53.120;8.764;2023-11-19T02:45:26;13.07;;;10.65;;
54919;SDS011;63804;53.120;8.764;2023-11-19T02:47:53;13.93;;;10.80;;
54919;SDS011;63804;53.120;8.764;2023-11-19T02:50:22;13.25;;;11.15;;
54919;SDS011;63804;53.120;8.764;2023-11-19T02:52:53;14.48;;;11.93;;
54919;SDS011;63804;53.120;8.764;2023-11-19T02:55:24;14.75;;;11.50;;
54919;SDS011;63804;53.120;8.764;2023-11-19T02:57:52;15.13;;;12.70;;
54919;SDS011;63804;53.120;8.764;2023-11-19T03:00:21;15.43;;;12.30;;
54919;SDS011;63804;53.120;8.764;2023-11-19T03:02:59;14.90;;;11.65;;
54919;SDS011;63804;53.120;8.764;2023-11-19T03:05:32;14.55;;;11.20;;
54919;SDS011;63804;53.120;8.764;2023-11-19T03:08:00;14.38;;;11.23;;
54919;SDS011;63804;53.120;8.764;2023-11-19T03:10:28;14.40;;;11.70;;
54919;SDS011;63804;53.120;8.764;2023-11-19T03:12:56;14.27;;;11.68;;
54919;SDS011;63804;53.120;8.764;2023-11-19T03:15:24;15.23;;;11.98;;
54919;SDS011;63804;53.120;8.764;2023-11-19T03:17:53;14.43;;;11.23;;
54919;SDS011;63804;53.120;8.764;2023-11-19T03:20:21;15.95;;;11.95;;
54919;SDS011;63804;53.120;8.764;2023-11-19T03:22:51;15.98;;;11.68;;
54919;SDS011;63804;53.120;8.764;2023-11-19T03:25:20;15.25;;;11.80;;
54919;SDS011;63804;53.120;8.764;2023-11-19T03:27:47;15.38;;;11.75;;
54919;SDS011;63804;53.120;8.764;2023-11-19T03:30:15;15.30;;;12.05;;
54919;SDS011;63804;53.120;8.764;2023-11-19T03:32:45;16.08;;;11.82;;
54919;SDS011;63804;53.120;8.764;2023-11-19T03:35:12;17.55;;;12.02;;
54919;SDS011;63804;53.120;8.764;2023-11-19T03:37:40;16.65;;;12.35;;
54919;SDS011;63804;53.120;8.764;2023-11-19T03:40:08;16.83;;;11.23;;
54919;SDS011;63804;53.120;8.764;2023-11-19T03:42:36;16.98;;;12.10;;
54919;SDS011;63804;53.120;8.764;2023-11-19T03:45:03;15.73;;;11.88;;
54919;SDS011;63804;53.120;8.764;2023-11-19T03:47:32;18.27;;;11.70;;
54919;SDS011;63804;53.120;8.764;2023-11-19T03:49:59;16.88;;;11.40;;
54919;SDS011;63804;53.120;8.764;2023-11-19T03:52:28;17.65;;;11.63;;
54919;SDS011;63804;53.120;8.764;2023-11-19T03:54:56;20.73;;;12.38;;
54919;SDS011;63804;53.120;8.764;2023-11-19T03:57:24;19.15;;;11.85;;
54919;SDS011;63804;53.120;8.764;2023-11-19T03:59:52;19.33;;;11.95;;
54919;SDS011;63804;53.120;8.764;2023-11-19T04:02:20;16.77;;;11.48;;
54919;SDS011;63804;53.120;8.764;2023-11-19T04:04:48;18.38;;;11.63;;
54919;SDS011;63804;53.120;8.764;2023-11-19T04:07:16;19.00;;;11.77;;
54919;SDS011;63804;53.120;8.764;2023-11-19T04:09:43;17.52;;;11.48;;
54919;SDS011;63804;53.120;8.764;2023-11-19T04:12:11;19.10;;;11.98;;
54919;SDS011;63804;53.120;8.764;2023-11-19T04:14:39;21.00;;;11.70;;
54919;SDS011;63804;53.120;8.764;2023-11-19T04:17:07;24.05;;;12.30;;
54919;SDS011;63804;53.120;8.764;2023-11-19T04:19:35;17.63;;;11.57;;
54919;SDS011;63804;53.120;8.764;2023-11-19T04:22:03;19.23;;;12.10;;
54919;SDS011;63804;53.120;8.764;2023-11-19T04:24:31;19.63;;;11.43;;
54919;SDS011;63804;53.120;8.764;2023-11-19T04:26:58;20.75;;;12.13;;
54919;SDS011;63804;53.120;8.764;2023-11-19T04:29:27;17.58;;;11.10;;
54919;SDS011;63804;53.120;8.764;2023-11-19T04:31:54;24.05;;;12.25;;
54919;SDS011;63804;53.120;8.764;2023-11-19T04:34:22;17.98;;;11.23;;
54919;SDS011;63804;53.120;8.764;2023-11-19T04:36:50;19.27;;;11.38;;
54919;SDS011;63804;53.120;8.764;2023-11-19T04:39:18;22.15;;;12.35;;
54919;SDS011;63804;53.120;8.764;2023-11-19T04:41:46;21.20;;;11.25;;
54919;SDS011;63804;53.120;8.764;2023-11-19T04:44:17;20.35;;;11.93;;
54919;SDS011;63804;53.120;8.764;2023-11-19T04:46:45;21.95;;;11.27;;
54919;SDS011;63804;53.120;8.764;2023-11-19T04:49:13;22.38;;;12.10;;
54919;SDS011;63804;53.120;8.764;2023-11-19T04:51:42;24.92;;;11.18;;
54919;SDS011;63804;53.120;8.764;2023-11-19T04:54:11;24.48;;;11.23;;
54919;SDS011;63804;53.120;8.764;2023-11-19T04:56:38;21.52;;;10.77;;
54919;SDS011;63804;53.120;8.764;2023-11-19T04:59:07;25.88;;;11.30;;
54919;SDS011;63804;53.120;8.764;2023-11-19T05:01:36;21.15;;;10.48;;
54919;SDS011;63804;53.120;8.764;2023-11-19T05:04:03;23.38;;;10.05;;
54919;SDS011;63804;53.120;8.764;2023-11-19T05:06:31;22.83;;;10.15;;
54919;SDS011;63804;53.120;8.764;2023-11-19T05:08:59;24.58;;;10.10;;
54919;SDS011;63804;53.120;8.764;2023-11-19T05:11:36;21.27;;;9.82;;
54919;SDS011;63804;53.120;8.764;2023-11-19T05:14:18;24.50;;;9.75;;
54919;SDS011;63804;53.120;8.764;2023-11-19T05:16:49;25.35;;;9.52;;
54919;SDS011;63804;53.120;8.764;2023-11-19T05:19:17;20.63;;;8.73;;
54919;SDS011;63804;53.120;8.764;2023-11-19T05:21:48;21.15;;;8.60;;
54919;SDS011;63804;53.120;8.764;2023-11-19T05:24:19;25.13;;;8.45;;
54919;SDS011;63804;53.120;8.764;2023-11-19T05:26:47;24.08;;;8.23;;
54919;SDS011;63804;53.120;8.764;2023-11-19T05:29:14;22.55;;;8.43;;
54919;SDS011;63804;53.120;8.764;2023-11-19T05:31:43;22.10;;;8.23;;
54919;SDS011;63804;53.120;8.764;2023-11-19T05:34:11;25.20;;;7.90;;
54919;SDS011;63804;53.120;8.764;2023-11-19T05:36:39;21.83;;;7.50;;
54919;SDS011;63804;53.120;8.764;2023-11-19T05:39:07;19.45;;;6.43;;
54919;SDS011;63804;53.120;8.764;2023-11-19T05:41:34;20.88;;;6.85;;
54919;SDS011;63804;53.120;8.764;2023-11-19T05:44:02;20.55;;;6.55;;
54919;SDS011;63804;53.120;8.764;2023-11-19T05:46:30;22.33;;;7.00;;
54919;SDS011;63804;53.120;8.764;2023-11-19T05:48:57;24.77;;;6.30;;
54919;SDS011;63804;53.120;8.764;2023-11-19T05:51:25;19.88;;;5.55;;
54919;SDS011;63804;53.120;8.764;2023-11-19T05:53:53;22.17;;;6.22;;
54919;SDS011;63804;53.120;8.764;2023-11-19T05:56:22;21.95;;;6.03;;
54919;SDS011;63804;53.120;8.764;2023-11-19T05:58:50;19.27;;;5.82;;
54919;SDS011;63804;53.120;8.764;2023-11-19T06:01:18;22.42;;;5.95;;
54919;SDS011;63804;53.120;8.764;2023-11-19T06:03:46;23.33;;;6.05;;
54919;SDS011;63804;53.120;8.764;2023-11-19T06:06:18;23.33;;;5.95;;
54919;SDS011;63804;53.120;8.764;2023-11-19T06:08:46;22.75;;;6.07;;
54919;SDS011;63804;53.120;8.764;2023-11-19T06:11:14;24.67;;;6.50;;
54919;SDS011;63804;53.120;8.764;2023-11-19T06:13:46;20.90;;;5.65;;
54919;SDS011;63804;53.120;8.764;2023-11-19T06:16:15;23.15;;;5.85;;
54919;SDS011;63804;53.120;8.764;2023-11-19T06:18:43;22.05;;;5.45;;
54919;SDS011;63804;53.120;8.764;2023-11-19T06:21:12;25.92;;;5.78;;
54919;SDS011;63804;53.120;8.764;2023-11-19T06:23:40;23.00;;;5.82;;
54919;SDS011;63804;53.120;8.764;2023-11-19T06:26:07;22.73;;;5.68;;
54919;SDS011;63804;53.120;8.764;2023-11-19T06:28:36;27.35;;;6.70;;
54919;SDS011;63804;53.120;8.764;2023-11-19T06:31:04;24.85;;;5.70;;
54919;SDS011;63804;53.120;8.764;2023-11-19T06:33:32;22.85;;;5.50;;
54919;SDS011;63804;53.120;8.764;2023-11-19T06:35:59;21.52;;;5.40;;
54919;SDS011;63804;53.120;8.764;2023-11-19T06:38:28;25.50;;;5.60;;
54919;SDS011;63804;53.120;8.764;2023-11-19T06:40:56;27.45;;;5.53;;
54919;SDS011;63804;53.120;8.764;2023-11-19T06:43:24;24.55;;;5.15;;
54919;SDS011;63804;53.120;8.764;2023-11-19T06:45:51;23.52;;;5.72;;
54919;SDS011;63804;53.120;8.764;2023-11-19T06:48:19;27.45;;;6.75;;
54919;SDS011;63804;53.120;8.764;2023-11-19T06:50:47;21.75;;;5.60;;
54919;SDS011;63804;53.120;8.764;2023-11-19T06:53:14;27.17;;;6.88;;
54919;SDS011;63804;53.120;8.764;2023-11-19T06:55:42;31.13;;;8.00;;
54919;SDS011;63804;53.120;8.764;2023-11-19T06:58:13;28.00;;;7.45;;
54919;SDS011;63804;53.120;8.764;2023-11-19T07:00:41;24.17;;;7.43;;
54919;SDS011;63804;53.120;8.764;2023-11-19T07:03:08;27.92;;;7.10;;
54919;SDS011;63804;53.120;8.764;2023-11-19T07:05:37;26.75;;;6.40;;
54919;SDS011;63804;53.120;8.764;2023-11-19T07:08:08;29.48;;;6.72;;
54919;SDS011;63804;53.120;8.764;2023-11-19T07:10:36;28.38;;;5.40;;
54919;SDS011;63804;53.120;8.764;2023-11-19T07:13:03;31.25;;;6.45;;
54919;SDS011;63804;53.120;8.764;2023-11-19T07:15:33;24.90;;;5.75;;
54919;SDS011;63804;53.120;8.764;2023-11-19T07:18:01;24.25;;;6.00;;
54919;SDS011;63804;53.120;8.764;2023-11-19T07:20:29;24.02;;;6.07;;
54919;SDS011;63804;53.120;8.764;2023-11-19T07:22:58;27.90;;;6.22;;
54919;SDS011;63804;53.120;8.764;2023-11-19T07:25:26;28.92;;;6.15;;
54919;SDS011;63804;53.120;8.764;2023-11-19T07:27:53;26.65;;;6.68;;
54919;SDS011;63804;53.120;8.764;2023-11-19T07:30:22;28.88;;;6.15;;
54919;SDS011;63804;53.120;8.764;2023-11-19T07:32:49;29.80;;;6.43;;
54919;SDS011;63804;53.120;8.764;2023-11-19T07:35:17;27.20;;;5.72;;
54919;SDS011;63804;53.120;8.764;2023-11-19T07:37:46;27.52;;;6.30;;
54919;SDS011;63804;53.120;8.764;2023-11-19T07:40:15;26.80;;;6.78;;
54919;SDS011;63804;53.120;8.764;2023-11-19T07:42:42;27.83;;;5.38;;
54919;SDS011;63804;53.120;8.764;2023-11-19T07:45:10;26.10;;;6.97;;
54919;SDS011;63804;53.120;8.764;2023-11-19T07:47:38;28.63;;;5.90;;
54919;SDS011;63804;53.120;8.764;2023-11-19T07:50:06;31.60;;;6.85;;
54919;SDS011;63804;53.120;8.764;2023-11-19T07:52:34;26.08;;;6.47;;
54919;SDS011;63804;53.120;8.764;2023-11-19T07:55:02;29.48;;;6.72;;
54919;SDS011;63804;53.120;8.764;2023-11-19T07:57:30;28.10;;;6.70;;
54919;SDS011;63804;53.120;8.764;2023-11-19T07:59:58;28.42;;;6.18;;
54919;SDS011;63804;53.120;8.764;2023-11-19T08:02:28;27.77;;;6.20;;
54919;SDS011;63804;53.120;8.764;2023-11-19T08:04:56;29.67;;;6.47;;
54919;SDS011;63804;53.120;8.764;2023-11-19T08:07:24;29.92;;;6.97;;
54919;SDS011;63804;53.120;8.764;2023-11-19T08:09:52;26.10;;;6.50;;
54919;SDS011;63804;53.120;8.764;2023-11-19T08:12:20;29.52;;;6.50;;
54919;SDS011;63804;53.120;8.764;2023-11-19T08:14:47;29.55;;;6.32;;
54919;SDS011;63804;53.120;8.764;2023-11-19T08:17:16;29.10;;;6.55;;
54919;SDS011;63804;53.120;8.764;2023-11-19T08:19:44;29.08;;;6.68;;
54919;SDS011;63804;53.120;8.764;2023-11-19T08:22:12;32.70;;;7.20;;
54919;SDS011;63804;53.120;8.764;2023-11-19T08:24:40;29.10;;;6.15;;
54919;SDS011;63804;53.120;8.764;2023-11-19T08:27:07;28.05;;;6.53;;
54919;SDS011;63804;53.120;8.764;2023-11-19T08:29:35;33.30;;;6.53;;
54919;SDS011;63804;53.120;8.764;2023-11-19T08:32:03;31.27;;;6.93;;
54919;SDS011;63804;53.120;8.764;2023-11-19T08:34:31;29.27;;;6.35;;
54919;SDS011;63804;53.120;8.764;2023-11-19T08:36:59;28.65;;;6.38;;
54919;SDS011;63804;53.120;8.764;2023-11-19T08:39:27;27.65;;;6.03;;
54919;SDS011;63804;53.120;8.764;2023-11-19T08:41:55;29.02;;;6.32;;
54919;SDS011;63804;53.120;8.764;2023-11-19T08:44:23;29.77;;;6.78;;
54919;SDS011;63804;53.120;8.764;2023-11-19T08:46:50;26.75;;;6.60;;
54919;SDS011;63804;53.120;8.764;2023-11-19T08:49:18;33.63;;;6.78;;
54919;SDS011;63804;53.120;8.764;2023-11-19T08:51:46;34.40;;;6.63;;
54919;SDS011;63804;53.120;8.764;2023-11-19T08:54:14;32.00;;;7.00;;
54919;SDS011;63804;53.120;8.764;2023-11-19T08:56:42;29.70;;;7.03;;
54919;SDS011;63804;53.120;8.764;2023-11-19T08:59:09;29.50;;;6.43;;
54919;SDS011;63804;53.120;8.764;2023-11-19T09:01:37;25.88;;;6.30;;
54919;SDS011;63804;53.120;8.764;2023-11-19T09:04:05;30.60;;;6.47;;
54919;SDS011;63804;53.120;8.764;2023-11-19T09:06:35;28.17;;;6.63;;
54919;SDS011;63804;53.120;8.764;2023-11-19T09:09:03;27.10;;;6.47;;
54919;SDS011;63804;53.120;8.764;2023-11-19T09:11:32;30.60;;;7.00;;
54919;SDS011;63804;53.120;8.764;2023-11-19T09:14:00;33.00;;;6.72;;
54919;SDS011;63804;53.120;8.764;2023-11-19T09:16:28;23.40;;;5.80;;
54919;SDS011;63804;53.120;8.764;2023-11-19T09:18:56;32.45;;;6.75;;
54919;SDS011;63804;53.120;8.764;2023-11-19T09:21:25;30.75;;;6.88;;
54919;SDS011;63804;53.120;8.764;2023-11-19T09:23:53;27.52;;;6.38;;
54919;SDS011;63804;53.120;8.764;2023-11-19T09:26:21;31.02;;;6.50;;
54919;SDS011;63804;53.120;8.764;2023-11-19T09:28:49;35.45;;;7.10;;
54919;SDS011;63804;53.120;8.764;2023-11-19T09:31:17;28.75;;;6.28;;
54919;SDS011;63804;53.120;8.764;2023-11-19T09:33:45;27.65;;;6.38;;
54919;SDS011;63804;53.120;8.764;2023-11-19T09:36:13;28.27;;;6.05;;
54919;SDS011;63804;53.120;8.764;2023-11-19T09:38:41;25.85;;;6.03;;
54919;SDS011;63804;53.120;8.764;2023-11-19T09:41:11;30.45;;;6.90;;
54919;SDS011;63804;53.120;8.764;2023-11-19T09:43:42;33.60;;;7.15;;
54919;SDS011;63804;53.120;8.764;2023-11-19T09:46:10;29.67;;;6.13;;
54919;SDS011;63804;53.120;8.764;2023-11-19T09:48:39;25.20;;;6.68;;
54919;SDS011;63804;53.120;8.764;2023-11-19T09:51:10;26.05;;;6.45;;
54919;SDS011;63804;53.120;8.764;2023-11-19T09:53:38;30.23;;;5.95;;
54919;SDS011;63804;53.120;8.764;2023-11-19T09:56:07;31.50;;;6.93;;
54919;SDS011;63804;53.120;8.764;2023-11-19T09:58:35;26.92;;;6.72;;
54919;SDS011;63804;53.120;8.764;2023-11-19T10:01:03;28.73;;;8.15;;
54919;SDS011;63804;53.120;8.764;2023-11-19T10:03:37;31.88;;;7.20;;
54919;SDS011;63804;53.120;8.764;2023-11-19T10:06:07;28.45;;;7.53;;
54919;SDS011;63804;53.120;8.764;2023-11-19T10:08:39;28.88;;;6.93;;
54919;SDS011;63804;53.120;8.764;2023-11-19T10:11:07;28.35;;;6.65;;
54919;SDS011;63804;53.120;8.764;2023-11-19T10:13:35;27.30;;;6.72;;
54919;SDS011;63804;53.120;8.764;2023-11-19T10:16:12;30.73;;;7.13;;
54919;SDS011;63804;53.120;8.764;2023-11-19T10:18:46;24.92;;;6.53;;
54919;SDS011;63804;53.120;8.764;2023-11-19T10:21:15;31.58;;;6.72;;
54919;SDS011;63804;53.120;8.764;2023-11-19T10:23:47;27.75;;;6.55;;
54919;SDS011;63804;53.120;8.764;2023-11-19T10:26:23;25.60;;;6.40;;
54919;SDS011;63804;53.120;8.764;2023-11-19T10:28:51;27.17;;;6.05;;
54919;SDS011;63804;53.120;8.764;2023-11-19T10:31:19;22.02;;;5.18;;
54919;SDS011;63804;53.120;8.764;2023-11-19T10:33:53;29.63;;;6.15;;
54919;SDS011;63804;53.120;8.764;2023-11-19T10:36:21;25.10;;;5.78;;
54919;SDS011;63804;53.120;8.764;2023-11-19T10:38:55;27.95;;;6.65;;
54919;SDS011;63804;53.120;8.764;2023-11-19T10:41:27;22.90;;;5.83;;
54919;SDS011;63804;53.120;8.764;2023-11-19T10:43:57;26.02;;;5.55;;
54919;SDS011;63804;53.120;8.764;2023-11-19T10:49:09;30.85;;;6.40;;
54919;SDS011;63804;53.120;8.764;2023-11-19T10:51:40;26.15;;;6.28;;
54919;SDS011;63804;53.120;8.764;2023-11-19T10:54:13;26.75;;;6.22;;
54919;SDS011;63804;53.120;8.764;2023-11-19T10:56:47;26.80;;;5.68;;
54919;SDS011;63804;53.120;8.764;2023-11-19T10:59:22;22.13;;;5.88;;
54919;SDS011;63804;53.120;8.764;2023-11-19T11:01:54;22.33;;;5.50;;
54919;SDS011;63804;53.120;8.764;2023-11-19T11:04:24;23.27;;;5.50;;
54919;SDS011;63804;53.120;8.764;2023-11-19T11:06:55;27.77;;;6.10;;
54919;SDS011;63804;53.120;8.764;2023-11-19T11:09:26;24.20;;;5.65;;
54919;SDS011;63804;53.120;8.764;2023-11-19T11:11:55;25.20;;;5.80;;
54919;SDS011;63804;53.120;8.764;2023-11-19T11:14:24;28.90;;;6.03;;
54919;SDS011;63804;53.120;8.764;2023-11-19T11:16:54;26.00;;;5.97;;
54919;SDS011;63804;53.120;8.764;2023-11-19T11:19:25;24.20;;;5.63;;
54919;SDS011;63804;53.120;8.764;2023-11-19T11:21:53;23.75;;;5.30;;
54919;SDS011;63804;53.120;8.764;2023-11-19T11:27:15;23.02;;;5.68;;
54919;SDS011;63804;53.120;8.764;2023-11-19T11:29:58;22.73;;;6.22;;
54919;SDS011;63804;53.120;8.764;2023-11-19T11:38:36;23.77;;;5.75;;
54919;SDS011;63804;53.120;8.764;2023-11-19T11:43:48;26.55;;;6.70;;
54919;SDS011;63804;53.120;8.764;2023-11-19T11:49:04;29.40;;;6.57;;
54919;SDS011;63804;53.120;8.764;2023-11-19T11:57:08;26.60;;;5.97;;
54919;SDS011;63804;53.120;8.764;2023-11-19T12:02:10;22.30;;;5.72;;
54919;SDS011;63804;53.120;8.764;2023-11-19T12:04:42;27.35;;;6.03;;
54919;SDS011;63804;53.120;8.764;2023-11-19T12:07:17;28.58;;;5.90;;
54919;SDS011;63804;53.120;8.764;2023-11-19T12:09:48;25.38;;;6.18;;
54919;SDS011;63804;53.120;8.764;2023-11-19T12:12:26;28.67;;;6.47;;
54919;SDS011;63804;53.120;8.764;2023-11-19T12:22:39;25.30;;;6.10;;
54919;SDS011;63804;53.120;8.764;2023-11-19T12:25:09;24.58;;;5.97;;
54919;SDS011;63804;53.120;8.764;2023-11-19T12:27:39;26.35;;;6.60;;
54919;SDS011;63804;53.120;8.764;2023-11-19T12:30:08;28.05;;;6.85;;
54919;SDS011;63804;53.120;8.764;2023-11-19T12:32:43;23.75;;;6.05;;
54919;SDS011;63804;53.120;8.764;2023-11-19T12:35:12;27.05;;;6.45;;
54919;SDS011;63804;53.120;8.764;2023-11-19T12:37:44;26.58;;;5.95;;
54919;SDS011;63804;53.120;8.764;2023-11-19T12:40:25;27.58;;;6.65;;
54919;SDS011;63804;53.120;8.764;2023-11-19T12:42:53;23.60;;;6.07;;
54919;SDS011;63804;53.120;8.764;2023-11-19T12:45:22;26.35;;;6.18;;
54919;SDS011;63804;53.120;8.764;2023-11-19T12:48:04;28.73;;;6.47;;
54919;SDS011;63804;53.120;8.764;2023-11-19T12:53:23;25.60;;;6.10;;
54919;SDS011;63804;53.120;8.764;2023-11-19T12:55:52;25.42;;;6.07;;
54919;SDS011;63804;53.120;8.764;2023-11-19T12:58:33;23.25;;;5.90;;
54919;SDS011;63804;53.120;8.764;2023-11-19T13:01:03;22.75;;;5.97;;
54919;SDS011;63804;53.120;8.764;2023-11-19T13:03:33;22.83;;;5.00;;
54919;SDS011;63804;53.120;8.764;2023-11-19T13:06:06;16.15;;;3.92;;
54919;SDS011;63804;53.120;8.764;2023-11-19T13:08:41;15.75;;;4.13;;
54919;SDS011;63804;53.120;8.764;2023-11-19T13:11:12;17.27;;;3.72;;
54919;SDS011;63804;53.120;8.764;2023-11-19T13:13:56;10.65;;;2.70;;
54919;SDS011;63804;53.120;8.764;2023-11-19T13:16:26;10.00;;;2.28;;
54919;SDS011;63804;53.120;8.764;2023-11-19T13:18:55;9.07;;;1.83;;
54919;SDS011;63804;53.120;8.764;2023-11-19T13:21:23;8.15;;;1.67;;
54919;SDS011;63804;53.120;8.764;2023-11-19T13:23:51;8.65;;;1.80;;
54919;SDS011;63804;53.120;8.764;2023-11-19T13:26:19;6.25;;;1.70;;
54919;SDS011;63804;53.120;8.764;2023-11-19T13:28:47;7.53;;;1.40;;
54919;SDS011;63804;53.120;8.764;2023-11-19T13:31:15;5.68;;;1.50;;
54919;SDS011;63804;53.120;8.764;2023-11-19T13:33:43;5.93;;;1.25;;
54919;SDS011;63804;53.120;8.764;2023-11-19T13:36:11;6.20;;;1.40;;
54919;SDS011;63804;53.120;8.764;2023-11-19T13:38:43;7.10;;;1.45;;
54919;SDS011;63804;53.120;8.764;2023-11-19T13:41:14;4.97;;;1.42;;
54919;SDS011;63804;53.120;8.764;2023-11-19T13:43:42;6.38;;;1.73;;
54919;SDS011;63804;53.120;8.764;2023-11-19T13:46:10;7.68;;;1.63;;
54919;SDS011;63804;53.120;8.764;2023-11-19T13:48:38;7.47;;;2.05;;
54919;SDS011;63804;53.120;8.764;2023-11-19T13:51:06;6.80;;;1.58;;
54919;SDS011;63804;53.120;8.764;2023-11-19T13:53:34;11.57;;;2.15;;
54919;SDS011;63804;53.120;8.764;2023-11-19T13:56:05;10.32;;;2.15;;
54919;SDS011;63804;53.120;8.764;2023-11-19T13:58:33;8.32;;;2.17;;
54919;SDS011;63804;53.120;8.764;2023-11-19T14:01:01;11.85;;;2.80;;
54919;SDS011;63804;53.120;8.764;2023-11-19T14:03:29;8.98;;;2.50;;
54919;SDS011;63804;53.120;8.764;2023-11-19T14:05:57;11.05;;;2.65;;
54919;SDS011;63804;53.120;8.764;2023-11-19T14:08:26;10.95;;;2.70;;
54919;SDS011;63804;53.120;8.764;2023-11-19T14:10:56;14.52;;;4.00;;
54919;SDS011;63804;53.120;8.764;2023-11-19T14:13:24;15.60;;;3.72;;
54919;SDS011;63804;53.120;8.764;2023-11-19T14:15:52;18.10;;;3.72;;
54919;SDS011;63804;53.120;8.764;2023-11-19T14:18:20;17.77;;;3.85;;
54919;SDS011;63804;53.120;8.764;2023-11-19T14:20:48;19.58;;;4.13;;
54919;SDS011;63804;53.120;8.764;2023-11-19T14:23:15;20.75;;;4.90;;
54919;SDS011;63804;53.120;8.764;2023-11-19T14:25:43;17.13;;;4.95;;
54919;SDS011;63804;53.120;8.764;2023-11-19T14:28:11;18.55;;;4.40;;
54919;SDS011;63804;53.120;8.764;2023-11-19T14:30:39;19.77;;;4.63;;
54919;SDS011;63804;53.120;8.764;2023-11-19T14:33:09;18.00;;;4.55;;
54919;SDS011;63804;53.120;8.764;2023-11-19T14:35:37;24.50;;;5.40;;
54919;SDS011;63804;53.120;8.764;2023-11-19T14:38:04;22.15;;;5.10;;
54919;SDS011;63804;53.120;8.764;2023-11-19T14:40:34;19.35;;;4.82;;
54919;SDS011;63804;53.120;8.764;2023-11-19T14:43:05;21.20;;;4.22;;
54919;SDS011;63804;53.120;8.764;2023-11-19T14:45:33;20.33;;;4.35;;
54919;SDS011;63804;53.120;8.764;2023-11-19T14:48:11;20.25;;;4.65;;
54919;SDS011;63804;53.120;8.764;2023-11-19T14:50:39;19.83;;;4.50;;
54919;SDS011;63804;53.120;8.764;2023-11-19T14:53:06;16.27;;;3.42;;
54919;SDS011;63804;53.120;8.764;2023-11-19T14:55:34;18.85;;;3.55;;
54919;SDS011;63804;53.120;8.764;2023-11-19T14:58:02;16.15;;;3.35;;
54919;SDS011;63804;53.120;8.764;2023-11-19T15:00:37;17.83;;;3.90;;
54919;SDS011;63804;53.120;8.764;2023-11-19T15:03:05;17.38;;;3.80;;
54919;SDS011;63804;53.120;8.764;2023-11-19T15:05:34;17.58;;;3.97;;
54919;SDS011;63804;53.120;8.764;2023-11-19T15:08:02;16.55;;;4.07;;
54919;SDS011;63804;53.120;8.764;2023-11-19T15:10:30;13.27;;;3.28;;
54919;SDS011;63804;53.120;8.764;2023-11-19T15:12:58;16.33;;;4.32;;
54919;SDS011;63804;53.120;8.764;2023-11-19T15:15:26;14.70;;;3.65;;
54919;SDS011;63804;53.120;8.764;2023-11-19T15:17:56;18.70;;;4.15;;
54919;SDS011;63804;53.120;8.764;2023-11-19T15:20:24;17.75;;;4.00;;
54919;SDS011;63804;53.120;8.764;2023-11-19T15:22:53;12.15;;;3.40;;